This is the latest recevied weather packets stored in our database for station/object EA2BK-11. If no packets are shown the sender has not sent any weather packets the latest 10 day(s).
| Time | Temp. | Humidity | Pressure | Rain* | Wind** | Luminosity | Snow |
|---|---|---|---|---|---|---|---|
| 1777726794 | 22.78° C | 48% | 948 hPa | - | - | - | - |
| 1777725888 | 23.33° C | 46% | 948 hPa | - | - | - | - |
| 1777724983 | 22.78° C | 48% | 948 hPa | - | - | - | - |
| 1777724078 | 23.33° C | 48% | 948 hPa | - | - | - | - |
| 1777723173 | 23.89° C | 46% | 949 hPa | - | - | - | - |
| 1777722268 | 23.89° C | 46% | 949 hPa | - | - | - | - |
| 1777721363 | 23.33° C | 46% | 949 hPa | - | - | - | - |
| 1777720457 | 23.33° C | 47% | 950 hPa | - | - | - | - |
| 1777719552 | 23.89° C | 45% | 950 hPa | - | - | - | - |
| 1777718647 | 23.89° C | 46% | 950 hPa | - | - | - | - |
| 1777717742 | 23.33° C | 46% | 950 hPa | - | - | - | - |
| 1777716837 | 23.33° C | 47% | 950 hPa | - | - | - | - |
| 1777715932 | 23.33° C | 47% | 950 hPa | - | - | - | - |
| 1777715026 | 22.22° C | 49% | 951 hPa | - | - | - | - |
| 1777714121 | 23.33° C | 48% | 950 hPa | - | - | - | - |
| 1777713216 | 22.78° C | 49% | 951 hPa | - | - | - | - |
| 1777712311 | 21.11° C | 52% | 950 hPa | - | - | - | - |
| 1777711406 | 20.56° C | 54% | 951 hPa | - | - | - | - |
| 1777710500 | 20° C | 55% | 951 hPa | - | - | - | - |
| 1777709595 | 19.44° C | 57% | 951 hPa | - | - | - | - |
| 1777708690 | 18.89° C | 59% | 951 hPa | - | - | - | - |
| 1777707785 | 18.33° C | 60% | 951 hPa | - | - | - | - |
| 1777706880 | 17.78° C | 61% | 951 hPa | - | - | - | - |
| 1777705975 | 16.67° C | 63% | 951 hPa | - | - | - | - |
| 1777705069 | 16.67° C | 63% | 951 hPa | - | - | - | - |
* Rain since midnight (hover to see other rain measurements)
** Current wind speed in m/s (hover to see current wind gust speed)